Feeding Hills, Massachusetts
Current Conditions -  °F | °C
As of 9:53 PM on Tuesday 21 Oct 2014 (Local Time) from KBAF Reporting Station
Overcast Overcast  
Wind Chill: 54°   Ceiling: 1600
Heat Index: 54°   Visibility: 10mi
Dew Point: 49°   Wind: 13mph
Humidity: 83%   Direction: 20°NNE
Pressure: 29.96"   Gusts: 18mph
Location:  42.07°N, 72.68°W
Report Text: KBAF 220153Z 02011G16KT 10SM OVC016 12/09 A2996 RMK AO2 SLP149 T01220094
Loading
Personal Weather Stations






























Interactive Weather Map
Tropical Storm Tracking
New forecast layout! Learn more

10-Day Weather Forecast

Advertisements
Track Severe Weather on mobile